Time;durP1;ratioP1;P1;durP2;ratioP2;P2;SDS_P1;SDS_P2;PMS_P1;PMS_P2;Temp;Humidity;BMP_temperature;BMP_pressure;BME280_temperature;BME280_humidity;BME280_pressure;Samples;Min_cycle;Max_cycle;Signal;HPM_P1;HPM_P2
2022/09/24 00:00:18;;;;;;;;;;;;;;;8.95;45.02;95289.94;5031521;28;20339;-73
2022/09/24 00:02:43;;;;;;;;;;;;;;;8.96;45.45;95282.81;5027656;28;20080;-72
2022/09/24 00:05:08;;;;;;;;;;;;;;;8.97;45.23;95281.78;5027800;28;20316;-72
2022/09/24 00:07:33;;;;;;;;;;;;;;;8.94;45.41;95279.44;5023194;28;20004;-70
2022/09/24 00:09:59;;;;;;;;;;;;;;;8.96;45.96;95277.50;5026178;28;19978;-72
2022/09/24 00:12:24;;;;;;;;;;;;;;;9.02;46.02;95278.63;5028049;28;19985;-72
2022/09/24 00:14:50;;;;;;;;;;;;;;;8.97;44.40;95270.38;5028487;28;20643;-73
2022/09/24 00:17:15;;;;;;;;;;;;;;;8.97;45.23;95265.84;5031360;28;19993;-71
2022/09/24 00:19:40;;;;;;;;;;;;;;;9.01;45.36;95267.16;5029226;28;20004;-71
2022/09/24 00:22:05;;;;;;;;;;;;;;;9.06;45.78;95263.97;5029605;28;20051;-71
2022/09/24 00:27:14;;;;;;;;;;;;;;;9.01;44.69;95261.84;5026733;28;20012;-72
2022/09/24 00:29:40;;;;;;;;;;;;;;;8.98;44.58;95267.53;5022908;28;20005;-72
2022/09/24 00:32:05;;;;;;;;;;;;;;;8.99;45.02;95263.88;5027404;28;20019;-71
2022/09/24 00:34:30;;;;;;;;;;;;;;;9.00;44.94;95264.69;5033758;28;19990;-71
2022/09/24 00:36:56;;;;;;;;;;;;;;;9.03;45.57;95264.31;5027254;28;20071;-72
2022/09/24 00:39:21;;;;;;;;;;;;;;;9.05;45.90;95271.09;5027283;28;19989;-72
2022/09/24 00:41:47;;;;;;;;;;;;;;;9.06;46.51;95266.63;5021442;28;19965;-72
2022/09/24 00:44:31;;;;;;;;;;;;;;;9.04;46.38;95264.16;5026946;28;20260;-73
2022/09/24 00:46:57;;;;;;;;;;;;;;;9.00;45.23;95248.75;5028228;28;19969;-72
2022/09/24 00:49:23;;;;;;;;;;;;;;;8.98;44.65;95251.59;5020601;28;19989;-73
2022/09/24 00:51:49;;;;;;;;;;;;;;;8.97;45.53;95249.94;5030823;28;19989;-70
2022/09/24 00:54:16;;;;;;;;;;;;;;;8.91;44.24;95248.78;5034914;28;20352;-72
2022/09/24 00:56:42;;;;;;;;;;;;;;;8.87;44.37;95246.66;5032417;28;20079;-72
2022/09/24 00:59:07;;;;;;;;;;;;;;;8.86;44.54;95248.50;5029495;28;20061;-71
2022/09/24 01:01:32;;;;;;;;;;;;;;;8.87;45.13;95241.34;5033244;28;19965;-71
2022/09/24 01:03:58;;;;;;;;;;;;;;;8.87;44.89;95244.81;5031633;28;20017;-72
2022/09/24 01:06:24;;;;;;;;;;;;;;;8.87;45.00;95246.66;5028150;28;19969;-73
2022/09/24 01:08:49;;;;;;;;;;;;;;;8.86;45.48;95242.34;5034406;28;19989;-71
2022/09/24 01:11:24;;;;;;;;;;;;;;;8.89;45.72;95244.66;5026147;28;20004;-72
2022/09/24 01:14:10;;;;;;;;;;;;;;;8.82;44.78;95237.41;5032171;28;19972;-72
2022/09/24 01:16:42;;;;;;;;;;;;;;;8.77;45.46;95242.41;5028288;28;19992;-72
2022/09/24 01:19:26;;;;;;;;;;;;;;;8.72;45.60;95241.28;5032539;28;20051;-72
2022/09/24 01:22:00;;;;;;;;;;;;;;;8.67;46.35;95236.50;5030558;28;20010;-71
2022/09/24 01:24:44;;;;;;;;;;;;;;;8.62;46.66;95228.22;5029290;28;20322;-72
2022/09/24 01:27:16;;;;;;;;;;;;;;;8.60;45.79;95227.59;5035423;28;20145;-71
2022/09/24 01:29:48;;;;;;;;;;;;;;;8.55;45.71;95226.28;5032902;28;19974;-72
2022/09/24 01:32:36;;;;;;;;;;;;;;;8.46;45.25;95218.56;5027613;28;19981;-72
2022/09/24 01:35:04;;;;;;;;;;;;;;;8.39;45.96;95215.75;5027783;28;20456;-71
2022/09/24 01:37:30;;;;;;;;;;;;;;;8.37;47.26;95210.63;5027448;28;19960;-72
2022/09/24 01:39:55;;;;;;;;;;;;;;;8.32;46.63;95205.00;5033114;28;19993;-72
2022/09/24 01:42:21;;;;;;;;;;;;;;;8.33;47.44;95203.19;5030680;28;19973;-72
2022/09/24 01:44:47;;;;;;;;;;;;;;;8.25;45.52;95196.09;5028625;28;19988;-71
2022/09/24 01:47:17;;;;;;;;;;;;;;;8.19;46.50;95200.25;5025372;28;20067;-72
2022/09/24 01:49:43;;;;;;;;;;;;;;;8.17;45.86;95203.09;5026466;28;20330;-70
2022/09/24 01:52:09;;;;;;;;;;;;;;;8.12;46.28;95194.00;5029495;28;20050;-72
2022/09/24 01:54:35;;;;;;;;;;;;;;;8.04;46.24;95203.66;5027692;28;20012;-71
2022/09/24 01:57:21;;;;;;;;;;;;;;;8.04;48.50;95203.66;5031740;28;19989;-72
2022/09/24 01:59:48;;;;;;;;;;;;;;;8.01;48.02;95198.69;5033548;28;20380;-72
2022/09/24 02:02:13;;;;;;;;;;;;;;;7.96;47.00;95189.59;5026841;28;19961;-72
2022/09/24 02:04:40;;;;;;;;;;;;;;;7.93;47.31;95190.78;5028325;28;20012;-72
2022/09/24 02:07:10;;;;;;;;;;;;;;;7.89;46.52;95181.53;5032725;28;19968;-70
2022/09/24 02:09:36;;;;;;;;;;;;;;;7.89;47.81;95184.19;5032191;28;20175;-72
2022/09/24 02:12:13;;;;;;;;;;;;;;;7.89;46.92;95178.88;5026711;28;20198;-73
2022/09/24 02:14:43;;;;;;;;;;;;;;;7.87;47.50;95175.56;5031736;28;20455;-72
2022/09/24 02:17:08;;;;;;;;;;;;;;;7.84;47.41;95176.72;5030331;28;20047;-72
2022/09/24 02:19:34;;;;;;;;;;;;;;;7.82;47.74;95176.06;5027819;28;20052;-71
2022/09/24 02:21:59;;;;;;;;;;;;;;;7.78;47.90;95178.25;5029525;28;19976;-71
2022/09/24 02:24:28;;;;;;;;;;;;;;;7.74;48.80;95179.56;5028223;28;19981;-73
2022/09/24 02:26:53;;;;;;;;;;;;;;;7.68;49.11;95180.22;5029323;28;20392;-72
2022/09/24 02:29:19;;;;;;;;;;;;;;;7.60;48.83;95172.31;5032076;28;19997;-72
2022/09/24 02:31:46;;;;;;;;;;;;;;;7.57;48.66;95172.63;5029156;28;19989;-72
2022/09/24 02:34:21;;;;;;;;;;;;;;;7.57;47.67;95172.63;5026942;28;20001;-71
2022/09/24 02:36:47;;;;;;;;;;;;;;;7.57;48.00;95173.47;5027997;28;19996;-72
2022/09/24 02:39:12;;;;;;;;;;;;;;;7.56;48.25;95176.28;5027072;28;19977;-72
2022/09/24 02:41:38;;;;;;;;;;;;;;;7.57;48.64;95167.34;5029456;28;19972;-71
2022/09/24 02:44:03;;;;;;;;;;;;;;;7.61;48.57;95164.19;5032146;28;20391;-72
2022/09/24 02:46:29;;;;;;;;;;;;;;;7.66;46.99;95167.13;5028870;28;20655;-72
2022/09/24 02:48:54;;;;;;;;;;;;;;;7.62;46.68;95167.66;5025213;28;19993;-71
2022/09/24 02:51:20;;;;;;;;;;;;;;;7.56;46.44;95163.03;5022526;28;20201;-72
2022/09/24 02:53:45;;;;;;;;;;;;;;;7.59;47.33;95162.72;5029912;28;20308;-71
2022/09/24 02:56:11;;;;;;;;;;;;;;;7.58;46.16;95161.06;5023817;28;20131;-72
2022/09/24 02:58:36;;;;;;;;;;;;;;;7.62;47.82;95163.19;5035521;28;20044;-72
2022/09/24 03:01:02;;;;;;;;;;;;;;;7.59;47.15;95152.09;5030552;28;20427;-72
2022/09/24 03:03:27;;;;;;;;;;;;;;;7.59;48.17;95147.66;5035531;28;20078;-72
2022/09/24 03:05:53;;;;;;;;;;;;;;;7.57;48.03;95154.09;5028590;28;19975;-72
2022/09/24 03:08:23;;;;;;;;;;;;;;;7.52;48.00;95157.28;5033137;28;20009;-72
2022/09/24 03:10:50;;;;;;;;;;;;;;;7.49;48.70;95157.59;5032532;28;19977;-72
2022/09/24 03:13:16;;;;;;;;;;;;;;;7.36;46.56;95155.47;5026605;28;19988;-72
2022/09/24 03:15:42;;;;;;;;;;;;;;;7.20;46.80;95161.63;5029289;28;20482;-72
2022/09/24 03:18:07;;;;;;;;;;;;;;;7.24;48.23;95157.66;5028188;28;19981;-72
2022/09/24 03:20:32;;;;;;;;;;;;;;;7.32;48.27;95156.81;5028981;28;20202;-72
2022/09/24 03:22:57;;;;;;;;;;;;;;;7.35;48.26;95152.00;5022002;28;20465;-71
2022/09/24 03:25:24;;;;;;;;;;;;;;;7.41;49.60;95158.44;5026422;28;20373;-70
2022/09/24 03:27:49;;;;;;;;;;;;;;;7.43;49.55;95153.81;5025799;28;20077;-71
2022/09/24 03:32:58;;;;;;;;;;;;;;;7.47;48.24;95163.06;5023564;28;20020;-71
2022/09/24 03:35:23;;;;;;;;;;;;;;;7.46;46.83;95153.47;5031064;28;20000;-72
2022/09/24 03:37:49;;;;;;;;;;;;;;;7.51;48.10;95155.59;5027958;28;19969;-72
2022/09/24 03:40:14;;;;;;;;;;;;;;;7.50;46.35;95165.38;5030311;28;20080;-72
2022/09/24 03:42:39;;;;;;;;;;;;;;;7.50;47.27;95164.53;5022878;28;20381;-71
2022/09/24 03:45:05;;;;;;;;;;;;;;;7.57;47.37;95170.81;5032174;28;20372;-71
2022/09/24 03:47:30;;;;;;;;;;;;;;;7.65;47.57;95162.03;5023452;28;19989;-72
2022/09/24 03:49:56;;;;;;;;;;;;;;;7.74;48.36;95168.09;5032190;28;19973;-72
2022/09/24 03:52:21;;;;;;;;;;;;;;;7.77;47.51;95159.84;5028472;28;19997;-72
2022/09/24 03:54:46;;;;;;;;;;;;;;;7.85;47.82;95159.00;5023370;28;20007;-71
2022/09/24 03:57:13;;;;;;;;;;;;;;;7.88;48.30;95158.66;5030082;28;19994;-70
2022/09/24 03:59:39;;;;;;;;;;;;;;;7.92;48.18;95157.31;5028698;28;20540;-71
2022/09/24 04:02:04;;;;;;;;;;;;;;;7.95;47.68;95158.81;5035030;28;20064;-72
2022/09/24 04:04:29;;;;;;;;;;;;;;;7.94;46.92;95159.78;5029850;28;20028;-70
2022/09/24 04:06:55;;;;;;;;;;;;;;;7.95;46.16;95156.16;5032020;28;19973;-72
2022/09/24 04:09:20;;;;;;;;;;;;;;;7.91;45.54;95155.66;5030050;28;19969;-71
2022/09/24 04:11:45;;;;;;;;;;;;;;;7.90;46.04;95148.72;5030445;28;20338;-70
2022/09/24 04:14:10;;;;;;;;;;;;;;;7.88;46.59;95146.22;5029024;28;19973;-70
2022/09/24 04:16:36;;;;;;;;;;;;;;;7.92;46.88;95144.06;5030821;28;20004;-70
2022/09/24 04:19:01;;;;;;;;;;;;;;;7.96;46.65;95134.75;5036199;28;19996;-71
2022/09/24 04:21:26;;;;;;;;;;;;;;;8.01;47.10;95140.38;5028252;28;20477;-72
2022/09/24 04:23:51;;;;;;;;;;;;;;;8.02;46.63;95138.53;5025492;28;20230;-71
2022/09/24 04:26:16;;;;;;;;;;;;;;;8.00;46.33;95140.53;5025290;28;20052;-71
2022/09/24 04:28:42;;;;;;;;;;;;;;;8.08;46.56;95140.50;5026623;28;20051;-72
2022/09/24 04:31:07;;;;;;;;;;;;;;;8.12;46.47;95138.31;5035620;28;20330;-71
2022/09/24 04:33:33;;;;;;;;;;;;;;;8.16;47.64;95137.00;5042158;28;19980;-72
2022/09/24 04:35:58;;;;;;;;;;;;;;;8.18;47.70;95129.69;5037488;28;20029;-71
2022/09/24 04:38:23;;;;;;;;;;;;;;;8.22;46.83;95128.31;5040323;28;19984;-72
2022/09/24 04:40:48;;;;;;;;;;;;;;;8.20;46.23;95126.84;5031141;28;20369;-71
2022/09/24 04:43:14;;;;;;;;;;;;;;;8.25;45.71;95133.28;5027139;28;20403;-72
2022/09/24 04:45:40;;;;;;;;;;;;;;;8.27;45.35;95138.41;5030115;28;20024;-71
2022/09/24 04:48:05;;;;;;;;;;;;;;;8.10;45.90;95138.53;5039426;28;20000;-72
2022/09/24 04:50:32;;;;;;;;;;;;;;;8.17;48.12;95142.09;5035976;28;20475;-72
2022/09/24 04:52:57;;;;;;;;;;;;;;;8.23;46.88;95132.63;5040624;28;20441;-71
2022/09/24 04:55:22;;;;;;;;;;;;;;;8.43;47.12;95132.16;5027494;28;19997;-71
2022/09/24 04:57:48;;;;;;;;;;;;;;;8.36;46.65;95131.25;5041713;28;20504;-69
2022/09/24 05:00:14;;;;;;;;;;;;;;;8.53;47.01;95119.50;5026596;28;20008;-71
2022/09/24 05:02:40;;;;;;;;;;;;;;;8.61;45.94;95123.94;5027249;28;20498;-71
2022/09/24 05:05:05;;;;;;;;;;;;;;;8.72;45.99;95120.03;5036251;28;19993;-71
2022/09/24 05:07:30;;;;;;;;;;;;;;;8.79;46.08;95120.97;5036340;28;20473;-70
2022/09/24 05:09:56;;;;;;;;;;;;;;;8.86;46.43;95121.06;5029868;28;20123;-72
2022/09/24 05:12:21;;;;;;;;;;;;;;;8.83;45.13;95116.09;5033356;28;20401;-70
2022/09/24 05:14:47;;;;;;;;;;;;;;;8.93;45.29;95118.50;5032487;28;20123;-70
2022/09/24 05:17:12;;;;;;;;;;;;;;;8.88;45.52;95115.59;5026942;28;20064;-70
2022/09/24 05:19:38;;;;;;;;;;;;;;;8.90;46.05;95121.53;5038158;28;20011;-72
2022/09/24 05:22:03;;;;;;;;;;;;;;;8.90;46.67;95110.91;5026538;28;19968;-71
2022/09/24 05:24:28;;;;;;;;;;;;;;;8.94;46.48;95112.19;5032927;28;19998;-69
2022/09/24 05:27:09;;;;;;;;;;;;;;;9.05;46.22;95109.13;5028137;28;20531;-71
2022/09/24 05:29:35;;;;;;;;;;;;;;;9.17;45.53;95100.72;5028893;28;20016;-71
2022/09/24 05:32:04;;;;;;;;;;;;;;;9.24;44.50;95103.50;5027041;28;20451;-71
2022/09/24 05:34:29;;;;;;;;;;;;;;;9.33;44.74;95113.84;5032227;28;20028;-73
2022/09/24 05:36:55;;;;;;;;;;;;;;;9.50;44.60;95118.16;5033022;28;20428;-73
2022/09/24 05:39:20;;;;;;;;;;;;;;;9.62;43.66;95123.84;5026579;28;20012;-70
2022/09/24 05:41:45;;;;;;;;;;;;;;;9.84;43.79;95130.03;5036616;28;19969;-72
2022/09/24 05:44:10;;;;;;;;;;;;;;;9.70;43.51;95131.72;5031551;28;19993;-71
2022/09/24 05:46:36;;;;;;;;;;;;;;;9.53;44.06;95125.75;5028656;28;20187;-72
2022/09/24 05:49:01;;;;;;;;;;;;;;;9.73;44.62;95126.03;5028874;28;19989;-70
2022/09/24 05:51:26;;;;;;;;;;;;;;;9.96;44.40;95127.72;5031141;28;20039;-70
2022/09/24 05:53:52;;;;;;;;;;;;;;;10.13;43.78;95130.22;5026712;28;19970;-72
2022/09/24 05:56:17;;;;;;;;;;;;;;;10.34;43.65;95132.91;5029859;28;20052;-71
2022/09/24 05:58:42;;;;;;;;;;;;;;;10.51;43.28;95139.81;5029979;28;19976;-71
2022/09/24 06:01:07;;;;;;;;;;;;;;;10.66;43.42;95140.59;5033041;28;20063;-73
2022/09/24 06:03:32;;;;;;;;;;;;;;;10.84;43.04;95137.47;5035424;28;19989;-71
2022/09/24 06:06:01;;;;;;;;;;;;;;;10.95;42.60;95132.66;5027088;28;19981;-72
2022/09/24 06:08:26;;;;;;;;;;;;;;;11.05;42.22;95143.78;5031752;28;19988;-73
2022/09/24 06:10:53;;;;;;;;;;;;;;;11.12;42.17;95143.88;5029878;28;20437;-72
2022/09/24 06:13:18;;;;;;;;;;;;;;;11.20;41.99;95145.56;5032610;28;19988;-71
2022/09/24 06:15:43;;;;;;;;;;;;;;;11.29;41.80;95140.94;5029412;28;20114;-71
2022/09/24 06:18:09;;;;;;;;;;;;;;;11.33;41.59;95147.50;5027635;28;19987;-72
2022/09/24 06:20:34;;;;;;;;;;;;;;;11.34;41.97;95142.00;5038502;28;20070;-72
2022/09/24 06:23:01;;;;;;;;;;;;;;;11.41;41.50;95146.53;5033819;28;19976;-70
2022/09/24 06:25:26;;;;;;;;;;;;;;;11.51;41.63;95139.84;5035175;28;20559;-72
2022/09/24 06:27:59;;;;;;;;;;;;;;;11.52;41.63;95144.16;5025783;28;20252;-72
2022/09/24 06:30:24;;;;;;;;;;;;;;;11.62;42.21;95145.63;5029352;28;19970;-71
2022/09/24 06:32:49;;;;;;;;;;;;;;;11.74;41.84;95145.91;5029335;28;19996;-70
2022/09/24 06:35:14;;;;;;;;;;;;;;;11.84;41.36;95148.22;5025760;28;19989;-71
2022/09/24 06:37:39;;;;;;;;;;;;;;;11.92;41.18;95149.88;5028635;28;20076;-71
2022/09/24 06:40:05;;;;;;;;;;;;;;;11.99;41.60;95146.25;5025181;28;20008;-71
2022/09/24 06:42:31;;;;;;;;;;;;;;;12.11;41.15;95156.38;5032265;28;20486;-72
2022/09/24 06:44:56;;;;;;;;;;;;;;;12.22;40.79;95147.81;5030990;28;19993;-70
2022/09/24 06:47:22;;;;;;;;;;;;;;;12.34;40.87;95155.25;5027108;28;20023;-71
2022/09/24 06:49:49;;;;;;;;;;;;;;;12.44;40.92;95150.31;5030635;28;19973;-72
2022/09/24 06:52:15;;;;;;;;;;;;;;;12.57;40.58;95152.22;5028709;28;19997;-70
2022/09/24 06:54:40;;;;;;;;;;;;;;;12.63;41.15;95145.22;5034336;28;20035;-72
2022/09/24 06:57:05;;;;;;;;;;;;;;;12.72;41.18;95156.56;5029927;28;19990;-72
2022/09/24 06:59:31;;;;;;;;;;;;;;;12.84;40.58;95152.25;5036974;28;20067;-72
2022/09/24 07:01:58;;;;;;;;;;;;;;;12.95;40.24;95145.47;5032954;28;20076;-71
2022/09/24 07:04:25;;;;;;;;;;;;;;;13.09;40.27;95146.31;5029702;28;20378;-72
2022/09/24 07:09:35;;;;;;;;;;;;;;;13.29;40.71;95145.50;5031925;28;20000;-70
2022/09/24 07:12:04;;;;;;;;;;;;;;;13.42;39.62;95152.69;5028833;28;20012;-71
2022/09/24 07:14:29;;;;;;;;;;;;;;;13.54;39.80;95142.19;5038472;28;20575;-70
2022/09/24 07:16:54;;;;;;;;;;;;;;;13.65;38.65;95146.91;5044020;28;20024;-70
2022/09/24 07:19:19;;;;;;;;;;;;;;;13.76;39.37;95148.09;5043164;28;20387;-71
2022/09/24 07:21:45;;;;;;;;;;;;;;;13.89;39.65;95151.78;5030827;28;20281;-70
2022/09/24 07:24:10;;;;;;;;;;;;;;;14.02;38.58;95156.28;5029742;28;20393;-70
2022/09/24 07:26:35;;;;;;;;;;;;;;;14.18;38.76;95147.78;5036408;28;19973;-71
2022/09/24 07:29:01;;;;;;;;;;;;;;;14.24;38.75;95153.34;5023067;28;20100;-70
2022/09/24 07:31:26;;;;;;;;;;;;;;;14.30;38.16;95158.66;5032934;28;19989;-69
2022/09/24 07:33:52;;;;;;;;;;;;;;;14.38;38.16;95157.56;5024826;28;19984;-71
2022/09/24 07:36:17;;;;;;;;;;;;;;;14.45;37.90;95150.34;5031406;28;20047;-70
2022/09/24 07:38:43;;;;;;;;;;;;;;;14.59;37.67;95152.97;5026803;28;20548;-72
2022/09/24 07:41:08;;;;;;;;;;;;;;;14.76;37.62;95149.78;5028530;28;19989;-71
2022/09/24 07:43:34;;;;;;;;;;;;;;;14.89;36.51;95163.06;5023796;28;19997;-70
2022/09/24 07:45:59;;;;;;;;;;;;;;;14.99;36.99;95165.28;5029420;28;19970;-72
2022/09/24 07:48:24;;;;;;;;;;;;;;;15.13;35.92;95162.50;5026569;28;19989;-70
2022/09/24 07:50:50;;;;;;;;;;;;;;;15.24;35.32;95170.66;5022863;28;19978;-70
2022/09/24 07:53:15;;;;;;;;;;;;;;;15.26;34.93;95167.75;5024418;28;20038;-71
2022/09/24 07:55:41;;;;;;;;;;;;;;;15.39;36.82;95169.50;5028818;28;20009;-72
2022/09/24 07:58:14;;;;;;;;;;;;;;;15.51;36.31;95163.44;5030662;28;19973;-71
2022/09/24 08:00:40;;;;;;;;;;;;;;;15.66;35.25;95176.50;5035508;28;19996;-72
2022/09/24 08:03:06;;;;;;;;;;;;;;;15.77;36.16;95167.75;5038870;28;20431;-71
2022/09/24 08:05:31;;;;;;;;;;;;;;;15.92;35.41;95164.72;5037661;28;20641;-71
2022/09/24 08:07:57;;;;;;;;;;;;;;;15.94;35.69;95167.19;5037458;28;19997;-70
2022/09/24 08:10:22;;;;;;;;;;;;;;;16.05;34.92;95173.66;5017550;28;20351;-72
2022/09/24 08:12:47;;;;;;;;;;;;;;;16.13;35.24;95176.03;5045628;28;20434;-70
2022/09/24 08:15:13;;;;;;;;;;;;;;;16.31;34.35;95166.34;5042798;28;19992;-71
2022/09/24 08:17:38;;;;;;;;;;;;;;;16.43;34.53;95169.94;5025755;28;19996;-71
2022/09/24 08:20:04;;;;;;;;;;;;;;;16.66;35.19;95172.94;5028482;28;20522;-72
2022/09/24 08:22:30;;;;;;;;;;;;;;;16.71;34.20;95170.38;5035514;28;20072;-69
2022/09/24 08:24:56;;;;;;;;;;;;;;;16.89;34.39;95169.50;5045282;28;20084;-72
2022/09/24 08:27:24;;;;;;;;;;;;;;;17.01;33.51;95169.53;5042659;28;20047;-71
2022/09/24 08:29:49;;;;;;;;;;;;;;;17.08;33.71;95169.44;5022530;28;19969;-71
2022/09/24 08:32:14;;;;;;;;;;;;;;;17.14;33.28;95169.34;5027081;28;19986;-72
2022/09/24 08:34:39;;;;;;;;;;;;;;;17.09;33.01;95160.31;5035948;28;20022;-71
2022/09/24 08:37:05;;;;;;;;;;;;;;;17.27;32.42;95173.69;5031905;28;20016;-72
2022/09/24 08:39:31;;;;;;;;;;;;;;;17.44;32.48;95181.09;5029967;28;19993;-71
2022/09/24 08:41:59;;;;;;;;;;;;;;;17.64;32.53;95174.56;5030454;28;19969;-70
2022/09/24 08:47:24;;;;;;;;;;;;;;;17.96;31.99;95174.22;5031120;28;19996;-72
2022/09/24 08:50:12;;;;;;;;;;;;;;;18.16;31.41;95164.94;5029273;28;20008;-72
2022/09/24 08:52:40;;;;;;;;;;;;;;;18.20;30.12;95160.69;5021044;28;20497;-71
2022/09/24 08:55:07;;;;;;;;;;;;;;;18.37;30.57;95160.78;5029157;28;19989;-71
2022/09/24 08:57:36;;;;;;;;;;;;;;;18.33;29.75;95164.19;5031338;28;19970;-71
2022/09/24 09:00:01;;;;;;;;;;;;;;;18.43;29.32;95173.28;5024907;28;19996;-72
2022/09/24 09:02:53;;;;;;;;;;;;;;;18.59;28.78;95170.09;5025166;28;19965;-70
2022/09/24 09:05:37;;;;;;;;;;;;;;;17.56;29.02;95167.66;5022887;28;19995;-71
2022/09/24 09:08:12;;;;;;;;;;;;;;;17.99;29.39;95173.75;5025403;28;19987;-72
2022/09/24 09:10:41;;;;;;;;;;;;;;;18.46;28.67;95174.66;5024873;28;19971;-72
2022/09/24 09:13:19;;;;;;;;;;;;;;;18.69;27.91;95178.38;5028058;28;20012;-71
2022/09/24 09:15:46;;;;;;;;;;;;;;;18.85;27.98;95173.25;5027382;28;20010;-70
2022/09/24 09:18:16;;;;;;;;;;;;;;;19.03;27.89;95169.53;5035061;28;20262;-70
2022/09/24 09:20:42;;;;;;;;;;;;;;;19.26;28.00;95176.66;5018745;28;19997;-69
2022/09/24 09:23:21;;;;;;;;;;;;;;;19.45;27.28;95174.56;5031381;28;20358;-70
2022/09/24 09:25:50;;;;;;;;;;;;;;;19.38;26.88;95176.59;5037670;28;20582;-68
2022/09/24 09:28:16;;;;;;;;;;;;;;;19.56;26.89;95175.56;5025740;28;19992;-70
2022/09/24 09:30:44;;;;;;;;;;;;;;;19.73;26.37;95182.81;5026986;28;19991;-71
2022/09/24 09:33:19;;;;;;;;;;;;;;;20.03;25.23;95178.94;5045240;28;19974;-70
2022/09/24 09:35:54;;;;;;;;;;;;;;;20.30;26.58;95182.78;5040854;28;20043;-69
2022/09/24 09:38:37;;;;;;;;;;;;;;;20.52;26.29;95184.66;5037567;28;19995;-72
2022/09/24 09:41:19;;;;;;;;;;;;;;;20.62;25.76;95184.78;5023930;28;20446;-68
2022/09/24 09:43:45;;;;;;;;;;;;;;;20.38;25.51;95173.41;5034219;28;20290;-71
2022/09/24 09:46:20;;;;;;;;;;;;;;;20.61;25.60;95175.84;5055038;28;19965;-69
2022/09/24 09:49:04;;;;;;;;;;;;;;;20.82;25.49;95170.69;5032966;28;20015;-68
2022/09/24 09:51:30;;;;;;;;;;;;;;;20.96;24.48;95175.69;5038753;28;20371;-69
2022/09/24 09:53:59;;;;;;;;;;;;;;;21.17;23.85;95178.59;5058682;28;19970;-69
2022/09/24 09:56:33;;;;;;;;;;;;;;;20.50;24.44;95182.22;5053702;28;20028;-69
2022/09/24 09:59:10;;;;;;;;;;;;;;;20.90;23.98;95182.13;5056527;28;20409;-70
2022/09/24 10:01:36;;;;;;;;;;;;;;;20.43;24.26;95179.69;5067402;28;19965;-70
2022/09/24 10:04:03;;;;;;;;;;;;;;;17.20;28.91;95189.13;5059084;28;19971;-70
2022/09/24 10:06:30;;;;;;;;;;;;;;;18.59;27.58;95191.66;5046524;28;19959;-70
2022/09/24 10:09:06;;;;;;;;;;;;;;;19.26;26.30;95187.47;5047524;28;20000;-69
2022/09/24 10:11:31;;;;;;;;;;;;;;;19.92;25.42;95186.03;5044940;28;20021;-69
2022/09/24 10:14:03;;;;;;;;;;;;;;;19.96;24.56;95178.31;5049182;28;19963;-69
2022/09/24 10:16:28;;;;;;;;;;;;;;;19.50;25.89;95176.53;5064994;28;19984;-69
2022/09/24 10:18:53;;;;;;;;;;;;;;;19.72;25.53;95178.50;5055682;28;19996;-70
2022/09/24 10:21:30;;;;;;;;;;;;;;;19.82;25.99;95178.63;5038372;28;19972;-70
2022/09/24 10:23:57;;;;;;;;;;;;;;;19.71;26.27;95166.84;5056227;28;19964;-69
2022/09/24 10:26:32;;;;;;;;;;;;;;;19.42;27.60;95168.84;5033148;28;20059;-71
2022/09/24 10:31:41;;;;;;;;;;;;;;;19.44;27.08;95167.53;5030149;28;20582;-69
2022/09/24 10:34:17;;;;;;;;;;;;;;;19.18;27.22;95167.09;5052757;28;19965;-68
2022/09/24 10:36:48;;;;;;;;;;;;;;;19.10;26.69;95166.69;5048989;28;19993;-70
2022/09/24 10:39:14;;;;;;;;;;;;;;;19.41;26.82;95175.31;5052441;28;20344;-69
2022/09/24 10:41:48;;;;;;;;;;;;;;;18.63;27.93;95171.25;5059082;28;20005;-69
2022/09/24 10:44:14;;;;;;;;;;;;;;;19.23;26.90;95171.75;5058207;28;19970;-70
2022/09/24 10:46:39;;;;;;;;;;;;;;;19.78;26.43;95171.28;5048142;28;20170;-68
2022/09/24 10:49:04;;;;;;;;;;;;;;;18.36;26.93;95177.19;5054617;28;20055;-71
2022/09/24 10:51:43;;;;;;;;;;;;;;;19.34;25.96;95170.06;5060608;28;20058;-70
2022/09/24 10:54:11;;;;;;;;;;;;;;;18.66;27.90;95168.09;5051751;28;19992;-67
2022/09/24 10:56:37;;;;;;;;;;;;;;;19.01;25.94;95169.78;5050566;28;20558;-69
2022/09/24 10:59:06;;;;;;;;;;;;;;;18.95;26.94;95174.28;5062099;28;20512;-70
2022/09/24 11:01:38;;;;;;;;;;;;;;;19.32;26.49;95167.63;5048908;28;19973;-69
2022/09/24 11:04:11;;;;;;;;;;;;;;;19.82;26.33;95158.91;5045887;28;20042;-70
2022/09/24 11:06:47;;;;;;;;;;;;;;;20.27;25.67;95167.91;5021641;28;20083;-68
2022/09/24 11:09:12;;;;;;;;;;;;;;;19.71;27.16;95166.03;5025159;28;19963;-70
2022/09/24 11:11:38;;;;;;;;;;;;;;;20.73;24.48;95156.00;5027299;28;19991;-69
2022/09/24 11:14:18;;;;;;;;;;;;;;;21.35;24.04;95153.06;5025665;28;19989;-69
2022/09/24 11:16:44;;;;;;;;;;;;;;;20.86;25.19;95158.31;5032290;28;20363;-69
2022/09/24 11:19:22;;;;;;;;;;;;;;;21.08;23.87;95157.41;5030189;28;20067;-68
2022/09/24 11:22:01;;;;;;;;;;;;;;;21.84;24.20;95146.63;5030700;28;19958;-70
2022/09/24 11:24:45;;;;;;;;;;;;;;;21.19;23.22;95149.38;5044493;28;20022;-69
2022/09/24 11:27:20;;;;;;;;;;;;;;;21.86;22.94;95146.38;5030796;28;20189;-70
2022/09/24 11:29:51;;;;;;;;;;;;;;;22.06;21.85;95145.66;5023102;28;19989;-70
2022/09/24 11:32:19;;;;;;;;;;;;;;;21.91;21.59;95146.41;5028059;28;20185;-70
2022/09/24 11:34:53;;;;;;;;;;;;;;;20.72;23.10;95157.06;5029039;28;20038;-71
2022/09/24 11:37:25;;;;;;;;;;;;;;;21.06;23.41;95156.03;5036302;28;19961;-71
2022/09/24 11:39:59;;;;;;;;;;;;;;;20.71;23.53;95152.75;5024875;28;20029;-71
2022/09/24 11:42:27;;;;;;;;;;;;;;;21.41;22.74;95148.50;5028770;28;20084;-68
2022/09/24 11:45:11;;;;;;;;;;;;;;;21.91;23.09;95146.41;5032608;28;20022;-70
2022/09/24 11:47:37;;;;;;;;;;;;;;;22.05;22.00;95141.34;5030730;28;19995;-71
2022/09/24 11:50:08;;;;;;;;;;;;;;;22.16;21.96;95142.19;5029882;28;20329;-68
2022/09/24 11:52:38;;;;;;;;;;;;;;;21.99;22.08;95136.97;5029404;28;20510;-70
2022/09/24 11:55:04;;;;;;;;;;;;;;;22.06;22.43;95137.53;5036632;28;19985;-71
2022/09/24 11:57:34;;;;;;;;;;;;;;;22.59;22.63;95141.28;5023965;28;20240;-69
2022/09/24 12:00:00;;;;;;;;;;;;;;;22.68;21.08;95136.16;5030887;28;20532;-70
2022/09/24 12:02:36;;;;;;;;;;;;;;;21.28;24.04;95142.44;5030375;28;19982;-71
2022/09/24 12:05:01;;;;;;;;;;;;;;;22.44;21.86;95136.59;5025873;28;20329;-69
2022/09/24 12:07:35;;;;;;;;;;;;;;;22.74;21.42;95129.66;5025300;28;19972;-69
2022/09/24 12:10:13;;;;;;;;;;;;;;;22.33;20.99;95131.13;5024406;28;20095;-71
2022/09/24 12:12:40;;;;;;;;;;;;;;;21.93;22.38;95127.19;5024765;28;19955;-71
2022/09/24 12:15:07;;;;;;;;;;;;;;;22.47;21.27;95125.22;5023792;28;19983;-70
2022/09/24 12:17:37;;;;;;;;;;;;;;;22.28;21.24;95123.00;5024546;28;19972;-70
2022/09/24 12:20:06;;;;;;;;;;;;;;;21.57;21.52;95120.47;5026289;28;19991;-70
2022/09/24 12:22:32;;;;;;;;;;;;;;;21.77;21.41;95119.78;5020798;28;20308;-71
2022/09/24 12:24:58;;;;;;;;;;;;;;;22.38;21.49;95117.63;5029256;28;19967;-71
2022/09/24 12:27:31;;;;;;;;;;;;;;;22.81;21.63;95118.56;5025242;28;20456;-69
2022/09/24 12:33:02;;;;;;;;;;;;;;;23.17;21.08;95111.28;5026992;28;19984;-69
2022/09/24 12:35:27;;;;;;;;;;;;;;;23.26;21.75;95113.44;5029562;28;20060;-71
2022/09/24 12:37:55;;;;;;;;;;;;;;;23.35;21.08;95114.50;5032149;28;19978;-70
2022/09/24 12:40:26;;;;;;;;;;;;;;;23.28;20.19;95120.22;5026163;28;19986;-69
2022/09/24 12:42:52;;;;;;;;;;;;;;;22.78;20.88;95119.91;5022910;28;20006;-70
2022/09/24 12:45:18;;;;;;;;;;;;;;;22.30;21.83;95117.31;5034015;28;20363;-72
2022/09/24 12:47:49;;;;;;;;;;;;;;;22.13;21.67;95116.44;5023364;28;20033;-71
2022/09/24 12:50:14;;;;;;;;;;;;;;;21.96;22.83;95121.25;5030902;28;20632;-70
2022/09/24 12:52:40;;;;;;;;;;;;;;;21.67;22.35;95110.75;5028454;28;20124;-71
2022/09/24 12:55:17;;;;;;;;;;;;;;;21.08;23.28;95108.69;5030117;28;20027;-69
2022/09/24 12:57:47;;;;;;;;;;;;;;;20.77;22.98;95113.84;5031392;28;19994;-70
2022/09/24 13:00:32;;;;;;;;;;;;;;;19.11;25.10;95111.66;5032838;28;19985;-69
2022/09/24 13:02:58;;;;;;;;;;;;;;;19.77;24.35;95104.81;5031692;28;20030;-71
2022/09/24 13:05:27;;;;;;;;;;;;;;;19.89;25.02;95097.44;5025099;28;20010;-70
2022/09/24 13:07:55;;;;;;;;;;;;;;;19.64;24.05;95103.31;5031609;28;20373;-71
2022/09/24 13:10:23;;;;;;;;;;;;;;;18.76;24.92;95100.06;5028375;28;20035;-70